Create Tblcommutelog Verified Points Advance Search
| # | Trip ID | Id Commuter | Trip Date | Trip Num | Current Lat | Current Lng | Delta Distance | Current Time | Activity | Activity Confidence | Current Speed | |
|---|---|---|---|---|---|---|---|---|---|---|---|---|
| 69381 | 250416_740046_0_1615 | 740046 | (not set) | (not set) | 38.49198528366 | -77.386298185188 | 40.532 | 2025-04-16 20:50:36.284 | in_vehicle | 100 | 14.524305524511 | |
| 69382 | 250416_782619_16650325_1628 | 782619 | (not set) | (not set) | 38.862741606556 | -77.059308346574 | 2.8668 | 2025-04-16 20:50:36.994 | in_vehicle | 100 | -0.44703925898772 | |
| 69383 | 250416_740046_0_1615 | 740046 | (not set) | (not set) | 38.491741985027 | -77.386514181241 | 40.5525 | 2025-04-16 20:50:37.113 | in_vehicle | 100 | 14.604772591129 | |
| 69384 | 250414_780476_16648147_1525 | 780476 | (not set) | (not set) | 38.7835885 | -77.1562843 | 13.9082 | 2025-04-14 20:56:36.742 | in_vehicle | 100 | 11.229626185772 | |
| 69385 | 250414_780476_16648147_1525 | 780476 | (not set) | (not set) | 38.7206664 | -77.2392186 | 22.9617 | 2025-04-14 20:56:36.772 | in_vehicle | 100 | 6.808407914383 | |
| 69386 | 250414_780476_16648147_1525 | 780476 | (not set) | (not set) | 38.7664212 | -77.1683889 | 15.4273 | 2025-04-14 20:56:36.791 | in_vehicle | 100 | 1.5735781916368 | |
| 69387 | 250414_780476_16648147_1525 | 780476 | (not set) | (not set) | 38.7707365 | -77.1783437 | 16.3911 | 2025-04-14 20:56:36.853 | in_vehicle | 100 | 10.693179074986 | |
| 69388 | 250414_780476_16648147_1525 | 780476 | (not set) | (not set) | 38.764811 | -77.1967373 | 17.5469 | 2025-04-14 20:56:36.88 | in_vehicle | 100 | 10.974813808149 | |
| 69389 | 250414_780476_16648147_1525 | 780476 | (not set) | (not set) | 38.7583469 | -77.220506 | 18.9454 | 2025-04-14 20:56:36.899 | in_vehicle | 100 | 10.076264897583 | |
| 69390 | 250414_780476_16648147_1525 | 780476 | (not set) | (not set) | 38.7543267 | -77.2386347 | 20.0111 | 2025-04-14 20:56:36.92 | in_vehicle | 100 | 9.4101764016916 | |
| 69391 | 250414_780476_16648147_1525 | 780476 | (not set) | (not set) | 38.744095 | -77.2506623 | 21.0154 | 2025-04-14 20:56:36.939 | in_vehicle | 100 | 7.6622528990496 | |
| 69392 | 250416_783081_16513559_1410 | 783081 | (not set) | (not set) | 38.955287148128 | -76.713768189353 | 24.2244 | 2025-04-16 18:41:47.336 | in_vehicle | 100 | 16.321403345642 | |
| 69393 | 250416_783081_16513559_1410 | 783081 | (not set) | (not set) | 38.955369693721 | -76.708993718976 | 24.4816 | 2025-04-16 18:41:58.328 | in_vehicle | 100 | 16.75503142686 | |
| 69394 | 250416_784005_16651841_1429 | 784005 | (not set) | (not set) | 38.898491718627 | -77.027963477635 | 1.8414 | 2025-04-16 18:41:59.238 | in_vehicle | 100 | -0.44703925898772 | |
| 69395 | 250416_784005_16651841_1429 | 784005 | (not set) | (not set) | 38.90102112441 | -77.032976296242 | 1.8414 | 2025-04-16 18:41:59.243 | in_vehicle | 100 | -0.44703925898772 | |
| 69396 | 250416_783081_16513559_1410 | 783081 | (not set) | (not set) | 38.955505060387 | -76.704356920105 | 24.7316 | 2025-04-16 18:42:09.317 | in_vehicle | 100 | 15.981653508811 | |
| 69397 | 250416_783081_16513559_1410 | 783081 | (not set) | (not set) | 38.955566231336 | -76.69968549026 | 24.9832 | 2025-04-16 18:42:22.628 | in_vehicle | 100 | 13.978917628546 | |
| 69398 | 250416_783081_16513559_1410 | 783081 | (not set) | (not set) | 38.955649708866 | -76.695272883648 | 25.221 | 2025-04-16 18:42:33.963 | in_vehicle | 100 | 14.899818502061 | |
| 69399 | 250416_784005_16651841_1429 | 784005 | (not set) | (not set) | 38.901341825202 | -77.040683701967 | 1.8414 | 2025-04-16 18:42:46.552 | in_vehicle | 100 | -0.44703925898772 | |
| 69400 | 250416_783081_16513559_1410 | 783081 | (not set) | (not set) | 38.955740535085 | -76.690461156289 | 25.4802 | 2025-04-16 18:42:49.429 | in_vehicle | 100 | 13.996799198906 |